sensor_id;sensor_type;location;lat;lon;timestamp;pressure;altitude;pressure_sealevel;temperature;humidity
1736;BME280;865;53.672;10.250;2023-06-14T00:02:18;101502.97;;;13.16;100.00
1736;BME280;865;53.672;10.250;2023-06-14T00:04:45;101507.25;;;13.20;100.00
1736;BME280;865;53.672;10.250;2023-06-14T00:07:11;101504.53;;;13.28;100.00
1736;BME280;865;53.672;10.250;2023-06-14T00:09:40;101501.78;;;13.34;100.00
1736;BME280;865;53.672;10.250;2023-06-14T00:12:07;101507.09;;;13.31;100.00
1736;BME280;865;53.672;10.250;2023-06-14T00:14:35;101506.94;;;13.38;100.00
1736;BME280;865;53.672;10.250;2023-06-14T00:17:01;101503.75;;;13.19;100.00
1736;BME280;865;53.672;10.250;2023-06-14T00:19:29;101512.75;;;13.06;100.00
1736;BME280;865;53.672;10.250;2023-06-14T00:21:59;101508.38;;;13.05;100.00
1736;BME280;865;53.672;10.250;2023-06-14T00:24:26;101514.47;;;13.07;100.00
1736;BME280;865;53.672;10.250;2023-06-14T00:26:52;101521.38;;;13.11;100.00
1736;BME280;865;53.672;10.250;2023-06-14T00:29:19;101524.00;;;13.11;100.00
1736;BME280;865;53.672;10.250;2023-06-14T00:31:45;101513.50;;;13.13;100.00
1736;BME280;865;53.672;10.250;2023-06-14T00:34:12;101521.47;;;13.05;100.00
1736;BME280;865;53.672;10.250;2023-06-14T00:36:38;101526.09;;;12.91;100.00
1736;BME280;865;53.672;10.250;2023-06-14T00:39:05;101529.69;;;12.85;100.00
1736;BME280;865;53.672;10.250;2023-06-14T00:41:31;101537.41;;;12.93;100.00
1736;BME280;865;53.672;10.250;2023-06-14T00:43:57;101528.84;;;12.83;100.00
1736;BME280;865;53.672;10.250;2023-06-14T00:46:24;101533.44;;;12.70;100.00
1736;BME280;865;53.672;10.250;2023-06-14T00:48:52;101536.03;;;12.70;100.00
1736;BME280;865;53.672;10.250;2023-06-14T00:51:18;101538.63;;;12.73;100.00
1736;BME280;865;53.672;10.250;2023-06-14T00:53:45;101534.09;;;12.82;100.00
1736;BME280;865;53.672;10.250;2023-06-14T00:56:14;101539.28;;;12.85;100.00
1736;BME280;865;53.672;10.250;2023-06-14T00:58:41;101543.00;;;12.71;100.00
1736;BME280;865;53.672;10.250;2023-06-14T01:01:08;101535.25;;;12.64;100.00
1736;BME280;865;53.672;10.250;2023-06-14T01:03:34;101550.41;;;12.42;100.00
1736;BME280;865;53.672;10.250;2023-06-14T01:06:13;101549.56;;;12.41;100.00
1736;BME280;865;53.672;10.250;2023-06-14T01:08:51;101550.06;;;12.66;100.00
1736;BME280;865;53.672;10.250;2023-06-14T01:11:29;101552.84;;;12.56;100.00
1736;BME280;865;53.672;10.250;2023-06-14T01:13:59;101553.88;;;12.44;100.00
1736;BME280;865;53.672;10.250;2023-06-14T01:16:29;101552.06;;;12.49;100.00
1736;BME280;865;53.672;10.250;2023-06-14T01:18:57;101552.84;;;12.54;100.00
1736;BME280;865;53.672;10.250;2023-06-14T01:21:25;101558.03;;;12.59;100.00
1736;BME280;865;53.672;10.250;2023-06-14T01:23:52;101555.41;;;12.59;100.00
1736;BME280;865;53.672;10.250;2023-06-14T01:26:22;101559.06;;;12.47;100.00
1736;BME280;865;53.672;10.250;2023-06-14T01:28:50;101557.38;;;12.43;100.00
1736;BME280;865;53.672;10.250;2023-06-14T01:31:20;101554.06;;;12.30;100.00
1736;BME280;865;53.672;10.250;2023-06-14T01:33:49;101551.50;;;12.28;100.00
1736;BME280;865;53.672;10.250;2023-06-14T01:36:19;101556.72;;;12.27;100.00
1736;BME280;865;53.672;10.250;2023-06-14T01:38:46;101567.28;;;12.19;100.00
1736;BME280;865;53.672;10.250;2023-06-14T01:41:15;101557.69;;;12.21;100.00
1736;BME280;865;53.672;10.250;2023-06-14T01:43:42;101555.56;;;12.48;100.00
1736;BME280;865;53.672;10.250;2023-06-14T01:46:09;101557.09;;;12.64;100.00
1736;BME280;865;53.672;10.250;2023-06-14T01:48:37;101563.50;;;12.40;100.00
1736;BME280;865;53.672;10.250;2023-06-14T01:51:03;101554.13;;;12.27;100.00
1736;BME280;865;53.672;10.250;2023-06-14T01:53:29;101563.63;;;12.32;100.00
1736;BME280;865;53.672;10.250;2023-06-14T01:55:56;101562.75;;;12.34;100.00
1736;BME280;865;53.672;10.250;2023-06-14T01:58:23;101563.72;;;12.25;100.00
1736;BME280;865;53.672;10.250;2023-06-14T02:00:50;101572.75;;;12.02;100.00
1736;BME280;865;53.672;10.250;2023-06-14T02:03:17;101567.44;;;12.07;100.00
1736;BME280;865;53.672;10.250;2023-06-14T02:05:45;101564.94;;;11.99;100.00
1736;BME280;865;53.672;10.250;2023-06-14T02:08:12;101572.00;;;11.91;100.00
1736;BME280;865;53.672;10.250;2023-06-14T02:10:38;101570.25;;;11.93;100.00
1736;BME280;865;53.672;10.250;2023-06-14T02:13:05;101569.25;;;12.03;100.00
1736;BME280;865;53.672;10.250;2023-06-14T02:15:31;101567.81;;;11.73;100.00
1736;BME280;865;53.672;10.250;2023-06-14T02:18:02;101579.06;;;11.81;100.00
1736;BME280;865;53.672;10.250;2023-06-14T02:20:30;101577.28;;;11.83;100.00
1736;BME280;865;53.672;10.250;2023-06-14T02:22:57;101572.72;;;12.05;100.00
1736;BME280;865;53.672;10.250;2023-06-14T02:25:23;101574.59;;;11.96;100.00
1736;BME280;865;53.672;10.250;2023-06-14T02:27:50;101575.41;;;11.98;100.00
1736;BME280;865;53.672;10.250;2023-06-14T02:30:16;101571.94;;;11.99;100.00
1736;BME280;865;53.672;10.250;2023-06-14T02:32:43;101576.25;;;11.98;100.00
1736;BME280;865;53.672;10.250;2023-06-14T02:35:10;101576.31;;;11.95;100.00
1736;BME280;865;53.672;10.250;2023-06-14T02:37:36;101577.97;;;12.02;100.00
1736;BME280;865;53.672;10.250;2023-06-14T02:40:04;101572.78;;;11.99;100.00
1736;BME280;865;53.672;10.250;2023-06-14T02:42:30;101574.69;;;11.85;100.00
1736;BME280;865;53.672;10.250;2023-06-14T02:44:57;101575.59;;;11.79;100.00
1736;BME280;865;53.672;10.250;2023-06-14T02:47:24;101580.00;;;11.76;100.00
1736;BME280;865;53.672;10.250;2023-06-14T02:49:51;101590.38;;;11.85;100.00
1736;BME280;865;53.672;10.250;2023-06-14T02:52:17;101590.41;;;11.77;100.00
1736;BME280;865;53.672;10.250;2023-06-14T02:54:44;101587.69;;;11.90;100.00
1736;BME280;865;53.672;10.250;2023-06-14T02:57:10;101587.72;;;11.83;100.00
1736;BME280;865;53.672;10.250;2023-06-14T02:59:37;101592.25;;;11.72;100.00
1736;BME280;865;53.672;10.250;2023-06-14T03:02:04;101599.09;;;11.82;100.00
1736;BME280;865;53.672;10.250;2023-06-14T03:04:30;101593.00;;;11.82;100.00
1736;BME280;865;53.672;10.250;2023-06-14T03:07:01;101597.34;;;11.84;100.00
1736;BME280;865;53.672;10.250;2023-06-14T03:09:29;101597.34;;;11.83;100.00
1736;BME280;865;53.672;10.250;2023-06-14T03:11:55;101595.72;;;11.73;100.00
1736;BME280;865;53.672;10.250;2023-06-14T03:14:22;101603.50;;;11.77;100.00
1736;BME280;865;53.672;10.250;2023-06-14T03:16:48;101601.78;;;11.75;100.00
1736;BME280;865;53.672;10.250;2023-06-14T03:19:16;101607.09;;;11.67;100.00
1736;BME280;865;53.672;10.250;2023-06-14T03:21:43;101605.28;;;11.75;100.00
1736;BME280;865;53.672;10.250;2023-06-14T03:24:11;101609.66;;;11.72;100.00
1736;BME280;865;53.672;10.250;2023-06-14T03:26:37;101602.56;;;11.86;100.00
1736;BME280;865;53.672;10.250;2023-06-14T03:29:04;101610.41;;;11.88;100.00
1736;BME280;865;53.672;10.250;2023-06-14T03:31:31;101605.91;;;11.99;100.00
1736;BME280;865;53.672;10.250;2023-06-14T03:33:59;101605.84;;;12.03;100.00
1736;BME280;865;53.672;10.250;2023-06-14T03:36:26;101610.41;;;11.88;100.00
1736;BME280;865;53.672;10.250;2023-06-14T03:38:54;101622.63;;;11.84;100.00
1736;BME280;865;53.672;10.250;2023-06-14T03:41:23;101628.88;;;11.69;100.00
1736;BME280;865;53.672;10.250;2023-06-14T03:43:49;101627.91;;;11.78;100.00
1736;BME280;865;53.672;10.250;2023-06-14T03:46:16;101621.69;;;11.90;100.00
1736;BME280;865;53.672;10.250;2023-06-14T03:48:42;101632.84;;;12.05;100.00
1736;BME280;865;53.672;10.250;2023-06-14T03:51:09;101625.06;;;12.02;100.00
1736;BME280;865;53.672;10.250;2023-06-14T03:53:36;101627.66;;;12.01;100.00
1736;BME280;865;53.672;10.250;2023-06-14T03:56:19;101631.16;;;12.01;100.00
1736;BME280;865;53.672;10.250;2023-06-14T03:58:45;101641.66;;;11.97;100.00
1736;BME280;865;53.672;10.250;2023-06-14T04:01:12;101648.66;;;11.96;100.00
1736;BME280;865;53.672;10.250;2023-06-14T04:03:38;101660.69;;;12.09;100.00
1736;BME280;865;53.672;10.250;2023-06-14T04:06:06;101659.75;;;12.17;100.00
1736;BME280;865;53.672;10.250;2023-06-14T04:08:34;101665.84;;;12.17;100.00
1736;BME280;865;53.672;10.250;2023-06-14T04:11:01;101666.69;;;12.19;100.00
1736;BME280;865;53.672;10.250;2023-06-14T04:13:28;101671.81;;;12.30;100.00
1736;BME280;865;53.672;10.250;2023-06-14T04:15:54;101667.06;;;12.58;100.00
1736;BME280;865;53.672;10.250;2023-06-14T04:18:23;101666.13;;;12.64;100.00
1736;BME280;865;53.672;10.250;2023-06-14T04:20:50;101661.75;;;12.67;100.00
1736;BME280;865;53.672;10.250;2023-06-14T04:23:17;101660.72;;;12.77;100.00
1736;BME280;865;53.672;10.250;2023-06-14T04:25:47;101666.59;;;12.95;100.00
1736;BME280;865;53.672;10.250;2023-06-14T04:28:16;101659.34;;;13.12;100.00
1736;BME280;865;53.672;10.250;2023-06-14T04:30:43;101651.28;;;13.26;100.00
1736;BME280;865;53.672;10.250;2023-06-14T04:33:11;101660.31;;;13.07;100.00
1736;BME280;865;53.672;10.250;2023-06-14T04:35:37;101669.78;;;13.15;100.00
1736;BME280;865;53.672;10.250;2023-06-14T04:38:05;101664.47;;;13.18;100.00
1736;BME280;865;53.672;10.250;2023-06-14T04:40:32;101674.69;;;13.37;100.00
1736;BME280;865;53.672;10.250;2023-06-14T04:42:59;101663.50;;;13.78;100.00
1736;BME280;865;53.672;10.250;2023-06-14T04:45:27;101656.13;;;13.49;100.00
1736;BME280;865;53.672;10.250;2023-06-14T04:48:00;101658.75;;;13.51;100.00
1736;BME280;865;53.672;10.250;2023-06-14T04:50:27;101657.69;;;13.61;100.00
1736;BME280;865;53.672;10.250;2023-06-14T04:52:55;101654.88;;;13.72;100.00
1736;BME280;865;53.672;10.250;2023-06-14T04:55:23;101651.25;;;13.79;100.00
1736;BME280;865;53.672;10.250;2023-06-14T04:57:51;101647.59;;;13.87;100.00
1736;BME280;865;53.672;10.250;2023-06-14T05:00:20;101647.91;;;14.16;100.00
1736;BME280;865;53.672;10.250;2023-06-14T05:02:47;101636.81;;;14.45;100.00
1736;BME280;865;53.672;10.250;2023-06-14T05:05:15;101633.66;;;14.71;100.00
1736;BME280;865;53.672;10.250;2023-06-14T05:07:42;101626.19;;;14.91;100.00
1736;BME280;865;53.672;10.250;2023-06-14T05:10:09;101617.63;;;15.19;100.00
1736;BME280;865;53.672;10.250;2023-06-14T05:12:36;101617.81;;;15.45;100.00
1736;BME280;865;53.672;10.250;2023-06-14T05:15:03;101602.31;;;15.70;100.00
1736;BME280;865;53.672;10.250;2023-06-14T05:17:29;101599.09;;;15.90;100.00
1736;BME280;865;53.672;10.250;2023-06-14T05:19:56;101595.50;;;15.94;100.00
1736;BME280;865;53.672;10.250;2023-06-14T05:22:22;101599.41;;;16.11;100.00
1736;BME280;865;53.672;10.250;2023-06-14T05:24:49;101592.50;;;16.07;100.00
1736;BME280;865;53.672;10.250;2023-06-14T05:27:16;101592.59;;;16.04;100.00
1736;BME280;865;53.672;10.250;2023-06-14T05:29:42;101596.00;;;16.07;100.00
1736;BME280;865;53.672;10.250;2023-06-14T05:32:09;101594.69;;;16.22;100.00
1736;BME280;865;53.672;10.250;2023-06-14T05:34:36;101604.69;;;16.40;100.00
1736;BME280;865;53.672;10.250;2023-06-14T05:37:02;101603.16;;;16.33;100.00
1736;BME280;865;53.672;10.250;2023-06-14T05:39:30;101607.28;;;16.42;100.00
1736;BME280;865;53.672;10.250;2023-06-14T05:41:56;101600.81;;;16.52;100.00
1736;BME280;865;53.672;10.250;2023-06-14T05:44:23;101597.50;;;16.74;100.00
1736;BME280;865;53.672;10.250;2023-06-14T05:46:50;101600.34;;;16.96;100.00
1736;BME280;865;53.672;10.250;2023-06-14T05:49:19;101598.00;;;17.13;100.00
1736;BME280;865;53.672;10.250;2023-06-14T05:51:45;101603.38;;;17.10;100.00
1736;BME280;865;53.672;10.250;2023-06-14T05:54:12;101600.53;;;17.16;100.00
1736;BME280;865;53.672;10.250;2023-06-14T05:56:38;101602.94;;;17.24;100.00
1736;BME280;865;53.672;10.250;2023-06-14T05:59:04;101602.78;;;17.28;100.00
1736;BME280;865;53.672;10.250;2023-06-14T06:01:31;101613.59;;;17.46;100.00
1736;BME280;865;53.672;10.250;2023-06-14T06:04:00;101613.56;;;17.47;100.00
1736;BME280;865;53.672;10.250;2023-06-14T06:06:26;101607.50;;;17.70;100.00
1736;BME280;865;53.672;10.250;2023-06-14T06:08:53;101612.16;;;17.87;100.00
1736;BME280;865;53.672;10.250;2023-06-14T06:11:19;101617.81;;;17.76;100.00
1736;BME280;865;53.672;10.250;2023-06-14T06:13:46;101622.06;;;17.82;100.00
1736;BME280;865;53.672;10.250;2023-06-14T06:16:13;101623.88;;;17.80;100.00
1736;BME280;865;53.672;10.250;2023-06-14T06:18:40;101616.69;;;18.09;100.00
1736;BME280;865;53.672;10.250;2023-06-14T06:21:08;101611.44;;;18.07;100.00
1736;BME280;865;53.672;10.250;2023-06-14T06:23:35;101612.19;;;18.11;100.00
1736;BME280;865;53.672;10.250;2023-06-14T06:26:03;101611.72;;;18.23;100.00
1736;BME280;865;53.672;10.250;2023-06-14T06:28:29;101614.78;;;18.12;100.00
1736;BME280;865;53.672;10.250;2023-06-14T06:30:56;101619.81;;;17.95;100.00
1736;BME280;865;53.672;10.250;2023-06-14T06:33:22;101623.22;;;17.98;100.00
1736;BME280;865;53.672;10.250;2023-06-14T06:35:49;101624.81;;;18.26;100.00
1736;BME280;865;53.672;10.250;2023-06-14T06:38:16;101627.88;;;18.39;100.00
1736;BME280;865;53.672;10.250;2023-06-14T06:40:44;101631.53;;;18.35;100.00
1736;BME280;865;53.672;10.250;2023-06-14T06:43:11;101626.69;;;18.70;100.00
1736;BME280;865;53.672;10.250;2023-06-14T06:45:43;101631.84;;;18.73;100.00
1736;BME280;865;53.672;10.250;2023-06-14T06:48:09;101635.91;;;18.59;100.00
1736;BME280;865;53.672;10.250;2023-06-14T06:50:36;101641.06;;;18.86;100.00
1736;BME280;865;53.672;10.250;2023-06-14T06:53:03;101638.91;;;18.72;100.00
1736;BME280;865;53.672;10.250;2023-06-14T06:55:29;101641.06;;;18.62;100.00
1736;BME280;865;53.672;10.250;2023-06-14T06:57:56;101648.56;;;18.75;100.00
1736;BME280;865;53.672;10.250;2023-06-14T07:00:22;101651.81;;;18.81;100.00
1736;BME280;865;53.672;10.250;2023-06-14T07:02:51;101654.41;;;18.83;100.00
1736;BME280;865;53.672;10.250;2023-06-14T07:05:19;101646.41;;;18.84;100.00
1736;BME280;865;53.672;10.250;2023-06-14T07:07:45;101654.16;;;18.89;100.00
1736;BME280;865;53.672;10.250;2023-06-14T07:10:12;101651.94;;;18.78;100.00
1736;BME280;865;53.672;10.250;2023-06-14T07:12:38;101652.69;;;19.04;100.00
1736;BME280;865;53.672;10.250;2023-06-14T07:15:09;101657.09;;;19.03;100.00
1736;BME280;865;53.672;10.250;2023-06-14T07:17:35;101667.28;;;19.34;100.00
1736;BME280;865;53.672;10.250;2023-06-14T07:20:03;101669.38;;;19.48;100.00
1736;BME280;865;53.672;10.250;2023-06-14T07:22:33;101673.50;;;19.11;100.00
1736;BME280;865;53.672;10.250;2023-06-14T07:25:00;101669.34;;;19.28;100.00
1736;BME280;865;53.672;10.250;2023-06-14T07:27:29;101661.28;;;19.51;100.00
1736;BME280;865;53.672;10.250;2023-06-14T07:29:56;101674.50;;;19.73;100.00
1736;BME280;865;53.672;10.250;2023-06-14T07:32:22;101667.28;;;19.77;100.00
1736;BME280;865;53.672;10.250;2023-06-14T07:34:49;101657.34;;;19.82;100.00
1736;BME280;865;53.672;10.250;2023-06-14T07:37:15;101672.53;;;19.56;100.00
1736;BME280;865;53.672;10.250;2023-06-14T07:39:42;101660.78;;;19.64;100.00
1736;BME280;865;53.672;10.250;2023-06-14T07:42:08;101664.75;;;19.94;100.00
1736;BME280;865;53.672;10.250;2023-06-14T07:44:35;101661.69;;;20.03;100.00
1736;BME280;865;53.672;10.250;2023-06-14T07:47:02;101659.47;;;20.13;100.00
1736;BME280;865;53.672;10.250;2023-06-14T07:49:28;101671.00;;;19.73;100.00
1736;BME280;865;53.672;10.250;2023-06-14T07:51:55;101664.31;;;19.85;100.00
1736;BME280;865;53.672;10.250;2023-06-14T07:54:21;101664.91;;;20.10;100.00
1736;BME280;865;53.672;10.250;2023-06-14T07:56:52;101661.13;;;19.97;100.00
1736;BME280;865;53.672;10.250;2023-06-14T07:59:18;101658.06;;;20.25;100.00
1736;BME280;865;53.672;10.250;2023-06-14T08:01:44;101658.59;;;20.33;100.00
1736;BME280;865;53.672;10.250;2023-06-14T08:04:16;101661.09;;;20.36;100.00
1736;BME280;865;53.672;10.250;2023-06-14T08:06:42;101665.06;;;20.46;100.00
1736;BME280;865;53.672;10.250;2023-06-14T08:09:12;101662.88;;;20.56;100.00
1736;BME280;865;53.672;10.250;2023-06-14T08:11:39;101666.09;;;20.63;100.00
1736;BME280;865;53.672;10.250;2023-06-14T08:14:06;101657.13;;;20.65;100.00
1736;BME280;865;53.672;10.250;2023-06-14T08:16:32;101660.63;;;20.47;100.00
1736;BME280;865;53.672;10.250;2023-06-14T08:18:59;101661.31;;;20.51;100.00
1736;BME280;865;53.672;10.250;2023-06-14T08:21:25;101660.06;;;20.59;100.00
1736;BME280;865;53.672;10.250;2023-06-14T08:23:55;101655.88;;;20.91;100.00
1736;BME280;865;53.672;10.250;2023-06-14T08:26:22;101656.63;;;20.57;100.00
1736;BME280;865;53.672;10.250;2023-06-14T08:28:48;101657.69;;;20.72;100.00
1736;BME280;865;53.672;10.250;2023-06-14T08:31:15;101650.78;;;20.87;100.00
1736;BME280;865;53.672;10.250;2023-06-14T08:33:42;101666.94;;;20.82;100.00
1736;BME280;865;53.672;10.250;2023-06-14T08:36:09;101660.75;;;21.01;100.00
1736;BME280;865;53.672;10.250;2023-06-14T08:38:37;101659.41;;;20.92;100.00
1736;BME280;865;53.672;10.250;2023-06-14T08:41:05;101662.72;;;21.32;100.00
1736;BME280;865;53.672;10.250;2023-06-14T08:43:35;101662.41;;;21.21;100.00
1736;BME280;865;53.672;10.250;2023-06-14T08:46:03;101657.66;;;21.27;100.00
1736;BME280;865;53.672;10.250;2023-06-14T08:48:30;101667.59;;;21.41;100.00
1736;BME280;865;53.672;10.250;2023-06-14T08:51:02;101660.22;;;21.29;100.00
1736;BME280;865;53.672;10.250;2023-06-14T08:53:31;101670.50;;;20.81;100.00
1736;BME280;865;53.672;10.250;2023-06-14T08:56:02;101662.34;;;20.67;100.00
1736;BME280;865;53.672;10.250;2023-06-14T08:58:31;101668.81;;;20.80;100.00
1736;BME280;865;53.672;10.250;2023-06-14T09:01:03;101665.44;;;21.13;100.00
1736;BME280;865;53.672;10.250;2023-06-14T09:03:30;101661.22;;;21.09;100.00
1736;BME280;865;53.672;10.250;2023-06-14T09:05:57;101675.06;;;20.97;100.00
1736;BME280;865;53.672;10.250;2023-06-14T09:08:28;101664.31;;;21.00;100.00
1736;BME280;865;53.672;10.250;2023-06-14T09:10:57;101667.31;;;21.11;100.00
1736;BME280;865;53.672;10.250;2023-06-14T09:13:24;101669.56;;;21.37;100.00
1736;BME280;865;53.672;10.250;2023-06-14T09:15:50;101671.63;;;21.31;100.00
1736;BME280;865;53.672;10.250;2023-06-14T09:18:17;101658.31;;;21.50;100.00
1736;BME280;865;53.672;10.250;2023-06-14T09:20:46;101657.56;;;21.48;100.00
1736;BME280;865;53.672;10.250;2023-06-14T09:23:20;101661.28;;;21.61;100.00
1736;BME280;865;53.672;10.250;2023-06-14T09:25:47;101661.13;;;21.64;100.00
1736;BME280;865;53.672;10.250;2023-06-14T09:28:14;101665.97;;;21.73;100.00
1736;BME280;865;53.672;10.250;2023-06-14T09:30:40;101663.72;;;21.48;100.00
1736;BME280;865;53.672;10.250;2023-06-14T09:33:07;101657.25;;;21.35;100.00
1736;BME280;865;53.672;10.250;2023-06-14T09:35:34;101666.91;;;21.55;100.00
1736;BME280;865;53.672;10.250;2023-06-14T09:38:01;101665.81;;;21.76;100.00
1736;BME280;865;53.672;10.250;2023-06-14T09:40:27;101655.94;;;21.26;100.00
1736;BME280;865;53.672;10.250;2023-06-14T09:42:54;101658.56;;;21.45;100.00
1736;BME280;865;53.672;10.250;2023-06-14T09:45:25;101660.06;;;21.51;100.00
1736;BME280;865;53.672;10.250;2023-06-14T09:47:58;101657.09;;;21.39;100.00
1736;BME280;865;53.672;10.250;2023-06-14T09:50:27;101660.94;;;21.15;100.00
1736;BME280;865;53.672;10.250;2023-06-14T09:53:00;101654.38;;;21.22;100.00
1736;BME280;865;53.672;10.250;2023-06-14T09:55:30;101652.78;;;21.54;100.00
1736;BME280;865;53.672;10.250;2023-06-14T09:57:59;101638.19;;;21.63;100.00
1736;BME280;865;53.672;10.250;2023-06-14T10:00:26;101643.00;;;21.90;100.00
1736;BME280;865;53.672;10.250;2023-06-14T10:02:54;101650.19;;;22.21;100.00
1736;BME280;865;53.672;10.250;2023-06-14T10:05:26;101653.66;;;22.39;97.49
1736;BME280;865;53.672;10.250;2023-06-14T10:08:07;101649.25;;;22.22;98.64
1736;BME280;865;53.672;10.250;2023-06-14T10:10:34;101642.00;;;22.25;96.45
1736;BME280;865;53.672;10.250;2023-06-14T10:13:01;101635.78;;;21.92;100.00
1736;BME280;865;53.672;10.250;2023-06-14T10:15:38;101643.69;;;21.93;100.00
1736;BME280;865;53.672;10.250;2023-06-14T10:18:14;101644.47;;;21.95;100.00
1736;BME280;865;53.672;10.250;2023-06-14T10:20:58;101646.03;;;22.15;100.00
1736;BME280;865;53.672;10.250;2023-06-14T10:23:32;101643.09;;;22.21;100.00
1736;BME280;865;53.672;10.250;2023-06-14T10:26:01;101649.63;;;21.98;100.00
1736;BME280;865;53.672;10.250;2023-06-14T10:28:28;101650.97;;;21.90;100.00
1736;BME280;865;53.672;10.250;2023-06-14T10:31:07;101655.16;;;21.94;100.00
1736;BME280;865;53.672;10.250;2023-06-14T10:38:59;101633.97;;;22.43;100.00
1736;BME280;865;53.672;10.250;2023-06-14T10:41:29;101640.72;;;22.33;100.00
1736;BME280;865;53.672;10.250;2023-06-14T10:46:46;101626.91;;;22.73;100.00
1736;BME280;865;53.672;10.250;2023-06-14T10:49:16;101626.22;;;23.02;98.95
1736;BME280;865;53.672;10.250;2023-06-14T10:51:51;101630.84;;;22.98;100.00
1736;BME280;865;53.672;10.250;2023-06-14T10:54:22;101633.22;;;22.87;98.87
1736;BME280;865;53.672;10.250;2023-06-14T10:56:51;101619.28;;;22.67;97.25
1736;BME280;865;53.672;10.250;2023-06-14T10:59:19;101623.84;;;22.97;100.00
1736;BME280;865;53.672;10.250;2023-06-14T11:04:51;101622.00;;;22.01;97.31
1736;BME280;865;53.672;10.250;2023-06-14T11:07:41;101613.34;;;22.30;100.00
1736;BME280;865;53.672;10.250;2023-06-14T11:12:59;101607.06;;;22.63;92.00
1736;BME280;865;53.672;10.250;2023-06-14T11:15:29;101618.81;;;22.75;96.05
1736;BME280;865;53.672;10.250;2023-06-14T11:17:57;101614.88;;;22.82;96.68
1736;BME280;865;53.672;10.250;2023-06-14T11:20:29;101610.28;;;22.70;92.89
1736;BME280;865;53.672;10.250;2023-06-14T11:22:56;101610.44;;;22.51;93.10
1736;BME280;865;53.672;10.250;2023-06-14T11:25:22;101605.28;;;22.95;97.74
1736;BME280;865;53.672;10.250;2023-06-14T11:27:49;101601.00;;;22.77;93.29
1736;BME280;865;53.672;10.250;2023-06-14T11:30:17;101604.25;;;22.66;92.50
1736;BME280;865;53.672;10.250;2023-06-14T11:32:47;101599.97;;;22.48;99.25
1736;BME280;865;53.672;10.250;2023-06-14T11:35:14;101601.50;;;22.36;98.21
1736;BME280;865;53.672;10.250;2023-06-14T11:37:42;101587.94;;;22.88;92.66
1736;BME280;865;53.672;10.250;2023-06-14T11:40:11;101603.03;;;22.88;93.66
1736;BME280;865;53.672;10.250;2023-06-14T11:42:40;101599.97;;;22.64;98.38
1736;BME280;865;53.672;10.250;2023-06-14T11:45:08;101593.94;;;22.92;100.00
1736;BME280;865;53.672;10.250;2023-06-14T11:47:36;101589.38;;;22.94;89.36
1736;BME280;865;53.672;10.250;2023-06-14T11:50:05;101590.69;;;23.17;86.08
1736;BME280;865;53.672;10.250;2023-06-14T11:52:32;101591.06;;;23.41;83.15
1736;BME280;865;53.672;10.250;2023-06-14T11:54:59;101578.88;;;23.37;82.56
1736;BME280;865;53.672;10.250;2023-06-14T11:57:26;101592.78;;;23.42;88.35
1736;BME280;865;53.672;10.250;2023-06-14T11:59:54;101592.97;;;23.09;87.30
1736;BME280;865;53.672;10.250;2023-06-14T12:02:21;101588.28;;;22.82;90.79
1736;BME280;865;53.672;10.250;2023-06-14T12:04:50;101579.56;;;22.64;90.85
1736;BME280;865;53.672;10.250;2023-06-14T12:07:18;101588.13;;;22.53;97.78
1736;BME280;865;53.672;10.250;2023-06-14T12:12:26;101576.50;;;22.40;90.18
1736;BME280;865;53.672;10.250;2023-06-14T12:14:54;101578.25;;;22.71;86.83
1736;BME280;865;53.672;10.250;2023-06-14T12:17:22;101571.94;;;23.04;87.13
1736;BME280;865;53.672;10.250;2023-06-14T12:19:50;101570.47;;;23.29;90.31
1736;BME280;865;53.672;10.250;2023-06-14T12:22:17;101562.91;;;23.51;88.24
1736;BME280;865;53.672;10.250;2023-06-14T12:24:44;101558.72;;;23.33;86.03
1736;BME280;865;53.672;10.250;2023-06-14T12:27:11;101566.44;;;23.07;87.24
1736;BME280;865;53.672;10.250;2023-06-14T12:29:45;101567.00;;;22.66;94.21
1736;BME280;865;53.672;10.250;2023-06-14T12:32:11;101573.25;;;22.81;92.56
1736;BME280;865;53.672;10.250;2023-06-14T12:34:38;101567.53;;;23.19;87.82
1736;BME280;865;53.672;10.250;2023-06-14T12:37:04;101568.88;;;22.96;85.42
1736;BME280;865;53.672;10.250;2023-06-14T12:39:32;101571.81;;;23.22;89.50
1736;BME280;865;53.672;10.250;2023-06-14T12:41:59;101559.31;;;23.66;87.17
1736;BME280;865;53.672;10.250;2023-06-14T12:44:25;101557.47;;;23.83;82.92
1736;BME280;865;53.672;10.250;2023-06-14T12:46:52;101560.34;;;23.64;89.07
1736;BME280;865;53.672;10.250;2023-06-14T12:49:20;101564.97;;;23.32;82.61
1736;BME280;865;53.672;10.250;2023-06-14T12:51:47;101571.88;;;23.20;83.24
1736;BME280;865;53.672;10.250;2023-06-14T12:54:14;101570.09;;;23.20;83.11
1736;BME280;865;53.672;10.250;2023-06-14T12:56:40;101561.50;;;23.46;84.19
1736;BME280;865;53.672;10.250;2023-06-14T12:59:09;101555.00;;;23.50;83.61
1736;BME280;865;53.672;10.250;2023-06-14T13:01:38;101564.59;;;23.24;80.99
1736;BME280;865;53.672;10.250;2023-06-14T13:04:05;101556.94;;;23.03;83.23
1736;BME280;865;53.672;10.250;2023-06-14T13:06:31;101549.41;;;23.40;83.02
1736;BME280;865;53.672;10.250;2023-06-14T13:09:00;101555.78;;;23.52;80.58
1736;BME280;865;53.672;10.250;2023-06-14T13:11:27;101563.16;;;23.18;75.72
1736;BME280;865;53.672;10.250;2023-06-14T13:13:53;101563.44;;;23.28;81.08
1736;BME280;865;53.672;10.250;2023-06-14T13:16:20;101552.75;;;23.58;75.88
1736;BME280;865;53.672;10.250;2023-06-14T13:18:47;101558.19;;;23.56;68.97
1736;BME280;865;53.672;10.250;2023-06-14T13:21:13;101551.63;;;23.76;71.21
1736;BME280;865;53.672;10.250;2023-06-14T13:23:40;101548.31;;;23.73;66.01